Time;durP1;ratioP1;P1;durP2;ratioP2;P2;SDS_P1;SDS_P2;PMS_P1;PMS_P2;Temp;Humidity;BMP_temperature;BMP_pressure;BME280_temperature;BME280_humidity;BME280_pressure;Samples;Min_cycle;Max_cycle;Signal;HPM_P1;HPM_P2
2023/03/29 00:01:29;;;;;;;7.97;3.15;;;5.80;99.90;;;;;;5042261;28;20029;-79
2023/03/29 00:03:56;;;;;;;7.78;2.75;;;6.00;99.90;;;;;;5056193;28;20044;-79
2023/03/29 00:06:22;;;;;;;9.00;3.15;;;5.80;99.90;;;;;;5062316;28;20036;-79
2023/03/29 00:08:53;;;;;;;8.68;3.03;;;5.70;99.90;;;;;;5042543;28;20067;-79
2023/03/29 00:11:21;;;;;;;8.10;3.03;;;5.80;99.90;;;;;;5046124;28;20032;-79
2023/03/29 00:13:49;;;;;;;8.27;2.80;;;5.90;99.90;;;;;;5044962;28;20044;-79
2023/03/29 00:16:14;;;;;;;10.35;3.22;;;5.80;99.90;;;;;;5059291;28;20086;-80
2023/03/29 00:18:40;;;;;;;8.27;3.10;;;5.80;99.90;;;;;;5043540;28;20078;-79
2023/03/29 00:21:06;;;;;;;9.82;3.20;;;5.70;99.90;;;;;;5028417;28;20159;-79
2023/03/29 00:23:32;;;;;;;8.48;2.80;;;5.70;99.90;;;;;;5061645;28;20032;-79
2023/03/29 00:25:57;;;;;;;6.90;2.78;;;5.70;99.90;;;;;;5041581;28;20041;-80
2023/03/29 00:28:24;;;;;;;9.00;3.03;;;5.70;99.90;;;;;;5061353;28;20055;-80
2023/03/29 00:30:50;;;;;;;9.50;3.17;;;6.10;99.90;;;;;;5035010;28;20060;-80
2023/03/29 00:33:20;;;;;;;8.65;3.05;;;5.90;99.90;;;;;;5046818;28;20039;-80
2023/03/29 00:35:49;;;;;;;8.45;2.85;;;5.70;99.90;;;;;;5034189;28;20040;-79
2023/03/29 00:38:15;;;;;;;7.95;2.83;;;5.80;99.90;;;;;;5050963;28;20056;-80
2023/03/29 00:40:45;;;;;;;8.65;2.72;;;5.80;99.90;;;;;;5022345;28;20043;-80
2023/03/29 00:43:12;;;;;;;8.30;3.10;;;5.70;99.90;;;;;;5037523;28;20490;-79
2023/03/29 00:45:38;;;;;;;9.30;2.92;;;5.70;99.90;;;;;;5025135;28;20097;-79
2023/03/29 00:48:17;;;;;;;9.05;3.00;;;5.70;99.90;;;;;;5047498;28;20040;-79
2023/03/29 00:51:00;;;;;;;8.88;3.17;;;5.70;99.90;;;;;;5052742;28;20036;-79
2023/03/29 00:53:32;;;;;;;9.20;3.20;;;5.70;99.90;;;;;;5063798;28;20041;-80
2023/03/29 00:56:05;;;;;;;7.80;2.92;;;5.80;99.90;;;;;;5044663;28;20040;-80
2023/03/29 00:59:03;;;;;;;8.25;2.80;;;5.70;99.90;;;;;;5035287;28;20350;-79
2023/03/29 01:01:37;;;;;;;9.13;2.95;;;5.70;99.90;;;;;;5053919;28;20371;-79
2023/03/29 01:04:18;;;;;;;7.40;2.67;;;5.70;99.90;;;;;;5059860;28;20048;-80
2023/03/29 01:07:20;;;;;;;8.77;3.10;;;5.70;99.90;;;;;;5052097;28;20070;-80
2023/03/29 01:09:54;;;;;;;9.40;3.03;;;5.70;99.90;;;;;;5036558;28;20032;-80
2023/03/29 01:12:27;;;;;;;8.68;3.20;;;5.70;99.90;;;;;;5038174;28;20413;-79
2023/03/29 01:15:11;;;;;;;8.23;2.90;;;5.70;99.90;;;;;;5050003;28;20041;-79
2023/03/29 01:17:37;;;;;;;9.18;2.95;;;5.70;99.90;;;;;;5059196;28;20044;-79
2023/03/29 01:20:09;;;;;;;9.65;3.80;;;6.30;99.90;;;;;;5047533;28;20482;-79
2023/03/29 01:22:54;;;;;;;8.55;2.95;;;5.70;99.90;;;;;;5052545;28;20087;-79
2023/03/29 01:25:57;;;;;;;9.30;3.00;;;5.70;99.90;;;;;;5062132;28;20044;-79
2023/03/29 01:28:35;;;;;;;8.60;3.33;;;5.80;99.90;;;;;;5057224;28;20072;-79
2023/03/29 01:31:14;;;;;;;8.40;3.40;;;5.70;99.90;;;;;;5052688;28;20513;-79
2023/03/29 01:33:45;;;;;;;9.07;2.97;;;6.10;99.90;;;;;;5050442;28;20552;-79
2023/03/29 01:36:25;;;;;;;8.05;3.10;;;5.70;99.90;;;;;;5035665;28;20041;-79
2023/03/29 01:39:03;;;;;;;8.45;2.92;;;5.80;99.90;;;;;;5054724;28;20627;-79
2023/03/29 01:41:57;;;;;;;7.85;3.03;;;6.10;99.90;;;;;;5060333;28;20468;-79
2023/03/29 01:44:34;;;;;;;10.88;3.20;;;5.80;99.90;;;;;;5053709;28;20382;-79
2023/03/29 01:47:10;;;;;;;8.75;3.22;;;5.70;99.90;;;;;;5045353;28;21615;-79
2023/03/29 01:49:52;;;;;;;9.30;3.45;;;5.80;99.90;;;;;;5053569;28;20044;-79
2023/03/29 01:52:34;;;;;;;8.60;3.50;;;5.80;99.90;;;;;;5044137;28;20051;-79
2023/03/29 01:55:13;;;;;;;10.73;3.55;;;5.70;99.90;;;;;;5058926;28;20383;-79
2023/03/29 01:57:43;;;;;;;10.50;4.05;;;5.70;99.90;;;;;;5052297;28;20036;-80
2023/03/29 02:00:14;;;;;;;8.48;3.35;;;5.80;99.90;;;;;;5053415;28;20058;-79
2023/03/29 02:02:42;;;;;;;10.27;3.25;;;5.70;99.90;;;;;;5054007;28;20036;-79
2023/03/29 02:05:11;;;;;;;9.80;3.80;;;5.80;99.90;;;;;;5055114;28;20040;-80
2023/03/29 02:07:37;;;;;;;11.02;4.13;;;5.70;99.90;;;;;;5044306;28;20063;-79
2023/03/29 02:10:06;;;;;;;8.63;3.85;;;5.70;99.90;;;;;;5028824;28;20074;-79
2023/03/29 02:12:32;;;;;;;8.88;3.75;;;5.80;99.90;;;;;;5051647;28;20044;-79
2023/03/29 02:14:59;;;;;;;9.40;3.85;;;5.80;99.90;;;;;;5062451;28;20136;-79
2023/03/29 02:17:27;;;;;;;9.63;4.05;;;5.70;99.90;;;;;;5038012;28;20059;-79
2023/03/29 02:20:13;;;;;;;10.00;3.75;;;5.80;99.90;;;;;;5029759;28;20036;-79
2023/03/29 02:23:01;;;;;;;10.35;4.13;;;5.80;99.90;;;;;;5052648;28;20398;-79
2023/03/29 02:25:28;;;;;;;10.43;4.15;;;5.80;99.90;;;;;;5050712;28;20047;-80
2023/03/29 02:27:55;;;;;;;9.23;4.15;;;5.70;99.90;;;;;;5059509;28;20089;-79
2023/03/29 02:30:22;;;;;;;8.82;3.90;;;6.00;99.90;;;;;;5033013;28;20390;-79
2023/03/29 02:33:08;;;;;;;9.50;4.13;;;6.20;99.90;;;;;;5051524;28;20044;-79
2023/03/29 02:35:39;;;;;;;9.60;4.03;;;5.80;99.90;;;;;;5048897;28;20478;-79
2023/03/29 02:38:10;;;;;;;11.43;4.35;;;5.80;99.90;;;;;;5061862;28;20036;-79
2023/03/29 02:40:37;;;;;;;12.02;4.60;;;5.70;99.90;;;;;;5052523;28;20047;-79
2023/03/29 02:43:06;;;;;;;9.85;4.25;;;6.90;99.90;;;;;;5054368;28;20040;-79
2023/03/29 02:45:33;;;;;;;10.55;4.40;;;5.70;99.90;;;;;;5049719;28;20084;-79
2023/03/29 02:48:06;;;;;;;9.88;4.47;;;6.00;99.90;;;;;;5049835;28;20062;-79
2023/03/29 02:50:38;;;;;;;11.35;4.13;;;5.80;99.90;;;;;;5057478;28;20478;-79
2023/03/29 02:53:15;;;;;;;11.88;4.38;;;5.90;99.90;;;;;;5042818;28;20601;-80
2023/03/29 02:55:40;;;;;;;11.13;4.30;;;5.80;99.90;;;;;;5048457;28;20041;-80
2023/03/29 02:58:07;;;;;;;10.38;4.40;;;6.00;99.90;;;;;;5055555;28;20036;-80
2023/03/29 03:00:38;;;;;;;11.38;4.30;;;5.80;99.90;;;;;;5054937;28;20043;-81
2023/03/29 03:03:08;;;;;;;9.73;4.10;;;5.80;99.90;;;;;;5057940;28;20288;-81
2023/03/29 03:05:34;;;;;;;9.93;4.18;;;5.80;99.90;;;;;;5055094;28;20041;-81
2023/03/29 03:08:01;;;;;;;10.07;4.18;;;5.80;99.90;;;;;;5053520;28;20036;-81
2023/03/29 03:10:27;;;;;;;9.80;4.20;;;5.80;99.90;;;;;;5051220;28;20043;-81
2023/03/29 03:12:53;;;;;;;11.20;4.40;;;6.10;99.90;;;;;;5032709;28;20406;-81
2023/03/29 03:15:19;;;;;;;11.10;4.47;;;5.90;99.90;;;;;;5055312;28;20052;-81
2023/03/29 03:17:46;;;;;;;11.32;4.63;;;5.80;99.90;;;;;;5018521;28;20075;-81
2023/03/29 03:20:12;;;;;;;11.65;4.60;;;5.80;99.90;;;;;;5031825;28;20106;-81
2023/03/29 03:22:44;;;;;;;12.02;4.75;;;5.80;99.90;;;;;;5044862;28;20044;-81
2023/03/29 03:25:10;;;;;;;12.50;4.80;;;5.90;99.90;;;;;;5016043;28;20040;-81
2023/03/29 03:27:37;;;;;;;11.02;4.80;;;5.80;99.90;;;;;;5046239;28;20123;-81
2023/03/29 03:30:05;;;;;;;13.15;5.03;;;5.80;99.90;;;;;;5051051;28;20048;-81
2023/03/29 03:32:32;;;;;;;10.23;4.80;;;5.80;99.90;;;;;;5048604;28;20245;-81
2023/03/29 03:34:59;;;;;;;11.77;4.68;;;5.80;99.90;;;;;;5042595;28;20619;-81
2023/03/29 03:37:26;;;;;;;9.50;4.38;;;5.80;99.90;;;;;;5054349;28;20036;-81
2023/03/29 03:39:52;;;;;;;10.93;4.30;;;6.00;99.90;;;;;;5054046;28;21787;-81
2023/03/29 03:42:18;;;;;;;10.50;4.80;;;6.00;99.90;;;;;;5045335;28;20040;-81
2023/03/29 03:44:44;;;;;;;10.15;4.97;;;5.80;99.90;;;;;;5050584;28;20036;-81
2023/03/29 03:47:12;;;;;;;10.18;4.85;;;5.90;99.90;;;;;;5030990;28;20044;-81
2023/03/29 03:49:38;;;;;;;10.50;4.80;;;5.80;99.90;;;;;;5033449;28;20032;-81
2023/03/29 03:52:04;;;;;;;12.82;5.32;;;5.80;99.90;;;;;;5045704;28;20367;-81
2023/03/29 03:54:30;;;;;;;12.32;5.13;;;5.80;99.90;;;;;;5055935;28;20343;-81
2023/03/29 03:56:56;;;;;;;12.13;5.22;;;5.80;99.90;;;;;;5050759;28;20033;-81
2023/03/29 03:59:22;;;;;;;11.07;4.65;;;5.80;99.90;;;;;;5049990;28;20241;-81
2023/03/29 04:01:48;;;;;;;12.32;5.50;;;5.80;99.90;;;;;;5052245;28;20213;-81
2023/03/29 04:04:38;;;;;;;14.45;5.28;;;5.80;99.90;;;;;;5059149;28;20079;-81
2023/03/29 04:07:04;;;;;;;11.52;5.28;;;5.90;99.90;;;;;;5049301;28;20087;-81
2023/03/29 04:09:31;;;;;;;12.15;5.72;;;5.80;99.90;;;;;;5028697;28;20036;-81
2023/03/29 04:11:58;;;;;;;12.05;5.78;;;6.10;99.90;;;;;;5033991;28;20484;-81
2023/03/29 04:14:24;;;;;;;12.00;5.32;;;6.30;99.90;;;;;;5052173;28;20425;-81
2023/03/29 04:16:53;;;;;;;13.85;5.78;;;6.30;99.90;;;;;;5034777;28;20055;-79
2023/03/29 04:19:19;;;;;;;11.93;5.95;;;5.80;99.90;;;;;;5029443;28;20725;-80
2023/03/29 04:21:46;;;;;;;11.90;5.95;;;5.80;99.90;;;;;;5047280;28;20482;-80
2023/03/29 04:24:13;;;;;;;12.10;6.10;;;6.20;99.90;;;;;;5033937;28;20090;-80
2023/03/29 04:26:38;;;;;;;11.77;5.90;;;5.90;99.90;;;;;;5051854;28;20474;-80
2023/03/29 04:29:04;;;;;;;14.13;6.28;;;6.00;99.90;;;;;;5038687;28;20044;-80
2023/03/29 04:31:30;;;;;;;13.88;6.22;;;5.90;99.90;;;;;;5023876;28;20051;-80
2023/03/29 04:33:57;;;;;;;11.73;5.65;;;5.90;99.90;;;;;;5052122;28;20033;-80
2023/03/29 04:36:23;;;;;;;13.50;6.88;;;5.90;99.90;;;;;;5056498;28;20493;-80
2023/03/29 04:38:51;;;;;;;13.40;6.70;;;5.90;99.90;;;;;;5052560;28;20044;-80
2023/03/29 04:41:17;;;;;;;12.63;6.45;;;5.90;99.90;;;;;;5021420;28;20466;-80
2023/03/29 04:43:45;;;;;;;12.15;6.30;;;6.20;99.90;;;;;;5049402;28;20036;-80
2023/03/29 04:46:12;;;;;;;13.30;6.28;;;5.90;99.90;;;;;;5036962;28;20039;-80
2023/03/29 04:48:38;;;;;;;12.57;6.25;;;5.90;99.90;;;;;;5053645;28;20061;-80
2023/03/29 04:51:04;;;;;;;15.38;6.63;;;5.90;99.90;;;;;;5053666;28;20048;-80
2023/03/29 04:53:30;;;;;;;13.00;6.85;;;5.90;99.90;;;;;;5045379;28;20047;-80
2023/03/29 04:55:58;;;;;;;13.88;7.00;;;5.90;99.90;;;;;;5054736;28;20040;-80
2023/03/29 04:58:24;;;;;;;13.93;6.47;;;5.90;99.90;;;;;;5020210;28;20036;-80
2023/03/29 05:00:50;;;;;;;13.50;7.25;;;5.90;99.90;;;;;;5054016;28;20402;-79
2023/03/29 05:03:16;;;;;;;13.88;7.82;;;6.30;99.90;;;;;;5049943;28;20036;-79
2023/03/29 05:05:42;;;;;;;17.58;7.40;;;6.00;99.90;;;;;;5052101;28;20127;-79
2023/03/29 05:08:08;;;;;;;15.15;7.15;;;6.00;99.90;;;;;;5046587;28;20408;-79
2023/03/29 05:10:34;;;;;;;14.02;7.28;;;6.00;99.90;;;;;;5043569;28;20032;-79
2023/03/29 05:13:02;;;;;;;14.48;6.85;;;6.20;99.90;;;;;;5029917;28;20048;-79
2023/03/29 05:15:30;;;;;;;12.40;6.82;;;6.00;99.90;;;;;;5024655;28;20468;-79
2023/03/29 05:17:57;;;;;;;13.40;6.78;;;6.00;99.90;;;;;;5053302;28;20039;-79
2023/03/29 05:20:24;;;;;;;14.20;7.35;;;6.00;99.90;;;;;;5055971;28;20048;-79
2023/03/29 05:22:49;;;;;;;14.73;7.00;;;6.60;99.90;;;;;;5032124;28;20105;-79
2023/03/29 05:25:17;;;;;;;16.23;7.65;;;6.00;99.90;;;;;;5046148;28;20474;-79
2023/03/29 05:27:44;;;;;;;14.63;6.97;;;6.00;99.90;;;;;;5070011;28;20046;-79
2023/03/29 05:30:12;;;;;;;15.45;6.82;;;6.00;99.90;;;;;;5055672;28;20371;-80
2023/03/29 05:32:38;;;;;;;13.00;6.95;;;6.00;99.90;;;;;;5051400;28;20051;-79
2023/03/29 05:35:04;;;;;;;15.13;7.72;;;6.10;99.90;;;;;;5059299;28;20131;-79
2023/03/29 05:37:33;;;;;;;14.63;7.10;;;6.00;99.90;;;;;;5045497;28;20108;-79
2023/03/29 05:39:59;;;;;;;15.57;7.90;;;6.00;99.90;;;;;;5045244;28;20494;-78
2023/03/29 05:42:26;;;;;;;14.07;7.25;;;6.10;99.90;;;;;;5013067;28;20087;-79
2023/03/29 05:44:52;;;;;;;14.95;7.57;;;6.10;99.90;;;;;;5050676;28;20055;-79
2023/03/29 05:47:18;;;;;;;12.85;6.97;;;6.10;99.90;;;;;;5045653;28;20044;-79
2023/03/29 05:49:45;;;;;;;15.07;7.25;;;6.10;99.90;;;;;;5034085;28;20574;-79
2023/03/29 05:52:11;;;;;;;14.88;7.60;;;6.10;99.90;;;;;;5028305;28;20119;-79
2023/03/29 05:54:38;;;;;;;14.95;7.53;;;6.10;99.90;;;;;;5035601;28;20397;-79
2023/03/29 05:57:04;;;;;;;15.10;7.13;;;6.30;99.90;;;;;;5041383;28;20041;-79
2023/03/29 05:59:31;;;;;;;14.73;7.28;;;6.10;99.90;;;;;;5049680;28;20375;-79
2023/03/29 06:01:59;;;;;;;15.38;7.70;;;6.30;99.90;;;;;;5038197;28;20492;-80
2023/03/29 06:04:25;;;;;;;14.75;7.18;;;6.10;99.90;;;;;;5052629;28;20123;-79
2023/03/29 06:06:52;;;;;;;14.57;7.25;;;6.10;99.90;;;;;;5070886;28;20109;-79
2023/03/29 06:09:18;;;;;;;15.30;7.47;;;6.20;99.90;;;;;;5036626;28;20051;-79
2023/03/29 06:11:45;;;;;;;13.70;7.57;;;6.60;99.90;;;;;;5051043;28;20086;-79
2023/03/29 06:14:12;;;;;;;16.00;7.35;;;6.20;99.90;;;;;;5021090;28;20048;-79
2023/03/29 06:16:39;;;;;;;17.17;7.80;;;6.20;99.90;;;;;;5016530;28;20103;-79
2023/03/29 06:19:06;;;;;;;14.18;7.57;;;6.20;99.90;;;;;;5033166;28;20033;-79
2023/03/29 06:21:32;;;;;;;14.90;7.35;;;6.50;99.90;;;;;;5041217;28;20129;-79
2023/03/29 06:23:58;;;;;;;15.13;7.80;;;6.20;99.90;;;;;;5036389;28;20052;-79
2023/03/29 06:26:26;;;;;;;13.80;7.70;;;6.30;99.90;;;;;;5035682;28;20041;-79
2023/03/29 06:28:52;;;;;;;12.98;7.20;;;6.30;99.90;;;;;;5053132;28;20040;-79
2023/03/29 06:31:19;;;;;;;13.40;7.50;;;6.30;99.90;;;;;;5034898;28;20043;-80
2023/03/29 06:33:46;;;;;;;15.73;7.38;;;6.30;99.90;;;;;;5052334;28;20044;-79
2023/03/29 06:36:14;;;;;;;14.52;7.85;;;6.40;99.90;;;;;;5051847;28;20040;-79
2023/03/29 06:38:41;;;;;;;13.52;7.68;;;6.40;99.90;;;;;;5036465;28;20135;-79
2023/03/29 06:41:11;;;;;;;16.05;8.30;;;6.50;99.90;;;;;;5033849;28;20036;-79
2023/03/29 06:43:37;;;;;;;14.32;7.85;;;6.50;99.90;;;;;;5049071;28;20049;-79
2023/03/29 06:46:03;;;;;;;15.80;8.13;;;6.50;99.90;;;;;;5032541;28;20102;-79
2023/03/29 06:48:29;;;;;;;15.07;7.85;;;6.50;99.90;;;;;;5002662;28;20047;-79
2023/03/29 06:50:55;;;;;;;14.52;7.80;;;6.50;99.90;;;;;;5018252;28;20046;-79
2023/03/29 06:53:21;;;;;;;15.93;7.88;;;6.50;99.90;;;;;;5050136;28;20050;-79
2023/03/29 06:55:48;;;;;;;14.02;7.82;;;6.60;99.90;;;;;;5050454;28;20117;-79
2023/03/29 06:58:14;;;;;;;15.93;7.68;;;6.60;99.90;;;;;;5042843;28;20033;-79
2023/03/29 07:00:41;;;;;;;15.52;7.35;;;6.60;99.90;;;;;;5044163;28;20032;-79
2023/03/29 07:03:18;;;;;;;14.40;7.90;;;6.60;99.90;;;;;;5048918;28;20052;-79
2023/03/29 07:05:50;;;;;;;13.65;7.22;;;6.70;99.90;;;;;;5027706;28;20446;-79
2023/03/29 07:08:17;;;;;;;14.32;7.78;;;6.70;99.90;;;;;;5032421;28;20076;-79
2023/03/29 07:10:46;;;;;;;14.93;8.38;;;6.70;99.90;;;;;;5039797;28;20122;-79
2023/03/29 07:13:12;;;;;;;15.57;7.72;;;6.80;99.90;;;;;;5047977;28;20037;-79
2023/03/29 07:15:41;;;;;;;15.40;7.82;;;6.90;99.90;;;;;;5051287;28;20049;-79
2023/03/29 07:18:11;;;;;;;16.75;7.90;;;6.90;99.90;;;;;;5035237;28;20053;-79
2023/03/29 07:20:37;;;;;;;13.90;8.07;;;6.90;99.90;;;;;;5051033;28;20052;-79
2023/03/29 07:23:04;;;;;;;13.93;8.23;;;6.90;99.90;;;;;;5052251;28;20048;-79
2023/03/29 07:25:31;;;;;;;14.43;8.20;;;6.90;99.90;;;;;;5046649;28;20036;-79
2023/03/29 07:27:57;;;;;;;15.80;8.68;;;7.00;99.90;;;;;;5031922;28;20529;-79
2023/03/29 07:30:27;;;;;;;13.68;8.00;;;7.20;99.90;;;;;;5046958;28;20059;-80
2023/03/29 07:32:54;;;;;;;17.27;8.68;;;7.30;99.90;;;;;;5050853;28;20048;-79
2023/03/29 07:35:22;;;;;;;15.73;8.90;;;7.30;99.90;;;;;;5048277;28;20040;-79
2023/03/29 07:37:47;;;;;;;16.08;8.07;;;7.40;99.90;;;;;;5048776;28;20040;-79
2023/03/29 07:40:22;;;;;;;15.02;8.25;;;7.50;99.90;;;;;;5051523;28;20117;-80
2023/03/29 07:42:53;;;;;;;12.82;7.40;;;7.50;99.90;;;;;;5039698;28;20397;-79
2023/03/29 07:45:20;;;;;;;15.80;7.65;;;7.50;99.90;;;;;;5048154;28;20141;-79
2023/03/29 07:47:47;;;;;;;16.88;8.18;;;7.50;99.90;;;;;;5015371;28;20546;-79
2023/03/29 07:50:14;;;;;;;14.27;8.10;;;7.40;99.90;;;;;;5031935;28;20390;-79
2023/03/29 07:52:40;;;;;;;14.63;7.68;;;7.40;99.90;;;;;;5045324;28;20119;-79
2023/03/29 07:55:08;;;;;;;15.10;8.30;;;7.40;99.90;;;;;;5022270;28;20124;-79
2023/03/29 07:57:34;;;;;;;14.20;7.75;;;7.40;99.90;;;;;;5048223;28;20458;-79
2023/03/29 08:00:00;;;;;;;16.25;8.40;;;7.40;99.90;;;;;;5045628;28;20077;-79
2023/03/29 08:02:26;;;;;;;13.48;7.78;;;7.40;99.90;;;;;;5025100;28;20557;-79
2023/03/29 08:04:53;;;;;;;12.80;7.47;;;7.50;99.90;;;;;;5057573;28;20045;-79
2023/03/29 08:07:19;;;;;;;13.88;7.43;;;7.50;99.90;;;;;;5055769;28;20045;-79
2023/03/29 08:09:45;;;;;;;14.43;7.35;;;7.50;99.90;;;;;;5042145;28;20044;-79
2023/03/29 08:12:11;;;;;;;12.50;7.35;;;7.50;99.90;;;;;;5042848;28;20036;-79
2023/03/29 08:14:37;;;;;;;14.93;7.18;;;7.50;99.90;;;;;;5042927;28;20036;-79
2023/03/29 08:17:03;;;;;;;12.93;6.85;;;7.60;99.90;;;;;;5045980;28;20426;-79
2023/03/29 08:19:29;;;;;;;15.05;7.70;;;7.70;99.90;;;;;;5015237;28;20048;-80
2023/03/29 08:21:55;;;;;;;19.73;7.95;;;7.70;99.90;;;;;;5017708;28;20042;-79
2023/03/29 08:24:21;;;;;;;13.93;7.68;;;7.90;99.90;;;;;;5012712;28;20392;-79
2023/03/29 08:26:47;;;;;;;12.90;7.22;;;7.90;99.90;;;;;;5012298;28;20049;-79
2023/03/29 08:29:13;;;;;;;14.77;7.65;;;8.00;99.90;;;;;;5056284;28;20487;-79
2023/03/29 08:31:39;;;;;;;13.52;7.13;;;8.00;99.90;;;;;;4995675;28;20046;-80
2023/03/29 08:34:05;;;;;;;15.75;7.60;;;8.10;99.90;;;;;;5029784;28;20128;-80
2023/03/29 08:36:31;;;;;;;13.85;7.70;;;8.10;99.90;;;;;;5062526;28;20594;-80
2023/03/29 08:38:57;;;;;;;13.98;7.20;;;8.10;99.90;;;;;;5014373;28;20506;-79
2023/03/29 08:41:52;;;;;;;12.35;6.78;;;8.20;99.90;;;;;;4998436;28;20069;-80
2023/03/29 08:44:42;;;;;;;15.50;7.30;;;8.20;99.90;;;;;;5032932;28;20045;-79
2023/03/29 08:47:24;;;;;;;13.90;6.80;;;8.30;99.90;;;;;;5017114;28;20037;-80
2023/03/29 08:49:54;;;;;;;12.65;6.78;;;8.40;99.90;;;;;;5027882;28;20132;-79
2023/03/29 08:52:30;;;;;;;12.73;7.25;;;8.50;99.90;;;;;;5011063;28;20041;-80
2023/03/29 08:54:58;;;;;;;15.00;7.22;;;8.50;99.90;;;;;;5013236;28;20033;-80
2023/03/29 08:57:56;;;;;;;15.05;7.75;;;8.50;99.90;;;;;;5011414;28;20033;-79
2023/03/29 09:00:39;;;;;;;13.02;6.95;;;8.60;99.90;;;;;;5015855;28;20106;-79
2023/03/29 09:03:36;;;;;;;12.95;6.43;;;8.60;99.90;;;;;;5028117;28;20041;-79
2023/03/29 09:06:11;;;;;;;14.93;7.05;;;8.70;99.90;;;;;;5014090;28;20535;-79
2023/03/29 09:08:48;;;;;;;12.90;6.97;;;8.80;99.90;;;;;;5031327;28;20043;-80
2023/03/29 09:11:22;;;;;;;13.80;7.03;;;8.90;99.90;;;;;;5022808;28;20103;-79
2023/03/29 09:14:07;;;;;;;14.82;7.10;;;9.00;99.90;;;;;;5059158;28;20053;-80
2023/03/29 09:16:48;;;;;;;12.50;7.15;;;9.30;99.90;;;;;;5057877;28;20049;-79
2023/03/29 09:19:50;;;;;;;12.60;6.93;;;9.40;99.90;;;;;;5051869;28;20491;-79
2023/03/29 09:22:18;;;;;;;14.57;7.13;;;9.40;99.90;;;;;;5047164;28;20056;-80
2023/03/29 09:24:52;;;;;;;13.38;6.72;;;9.40;99.90;;;;;;5029638;28;20037;-79
2023/03/29 09:27:53;;;;;;;13.57;7.53;;;9.50;99.90;;;;;;5016832;28;20049;-80
2023/03/29 09:30:26;;;;;;;14.02;7.20;;;9.60;99.90;;;;;;5012868;28;20045;-79
2023/03/29 09:33:01;;;;;;;15.90;7.93;;;9.60;99.90;;;;;;5025228;28;20053;-79
2023/03/29 09:35:37;;;;;;;12.20;7.03;;;9.70;99.90;;;;;;5028524;28;20419;-80
2023/03/29 09:38:08;;;;;;;14.00;7.10;;;9.80;99.90;;;;;;5012467;28;20402;-79
2023/03/29 09:40:43;;;;;;;14.23;7.53;;;9.80;99.90;;;;;;5013003;28;20037;-80
2023/03/29 09:43:14;;;;;;;14.13;7.05;;;9.90;99.90;;;;;;5029337;28;20041;-79
2023/03/29 09:45:42;;;;;;;15.80;7.93;;;9.90;99.90;;;;;;5012693;28;20064;-79
2023/03/29 09:48:14;;;;;;;16.80;7.60;;;9.90;99.90;;;;;;5013967;28;20049;-80
2023/03/29 09:50:45;;;;;;;15.82;7.40;;;9.90;99.90;;;;;;5027107;28;20037;-80
2023/03/29 09:53:12;;;;;;;14.30;7.50;;;10.00;99.90;;;;;;5029507;28;20056;-80
2023/03/29 09:55:39;;;;;;;16.75;7.78;;;10.10;99.90;;;;;;5013173;28;20635;-80
2023/03/29 09:58:15;;;;;;;16.58;7.75;;;10.00;99.90;;;;;;5012616;28;20053;-80
2023/03/29 10:00:41;;;;;;;18.17;7.97;;;10.10;99.90;;;;;;5027001;28;20581;-79
2023/03/29 10:03:07;;;;;;;14.38;7.82;;;10.10;99.90;;;;;;5030957;28;20053;-80
2023/03/29 10:05:38;;;;;;;15.43;7.78;;;10.10;99.90;;;;;;5063585;28;20063;-80
2023/03/29 10:08:17;;;;;;;18.05;8.73;;;10.10;99.90;;;;;;5049402;28;20056;-79
2023/03/29 10:10:43;;;;;;;16.20;8.32;;;10.10;99.90;;;;;;5046426;28;20042;-80
2023/03/29 10:13:33;;;;;;;18.67;8.57;;;10.10;99.90;;;;;;5063209;28;20529;-80
2023/03/29 10:16:03;;;;;;;16.45;8.15;;;10.20;99.90;;;;;;5013071;28;20411;-79
2023/03/29 10:18:31;;;;;;;18.63;8.60;;;10.20;99.90;;;;;;5045271;28;20056;-79
2023/03/29 10:21:02;;;;;;;16.83;8.50;;;10.30;99.90;;;;;;5012449;28;20088;-80
2023/03/29 10:23:34;;;;;;;16.50;8.18;;;10.30;99.90;;;;;;5012672;28;20048;-80
2023/03/29 10:26:06;;;;;;;20.03;8.60;;;10.30;99.90;;;;;;5009915;28;20038;-79
2023/03/29 10:28:35;;;;;;;18.85;9.00;;;10.30;99.90;;;;;;5034926;28;20053;-79
2023/03/29 10:31:02;;;;;;;18.48;8.55;;;10.30;99.90;;;;;;5009043;28;20125;-80
2023/03/29 10:33:33;;;;;;;17.33;8.52;;;10.30;99.90;;;;;;5030212;28;20152;-80
2023/03/29 10:36:01;;;;;;;19.52;8.82;;;10.30;99.90;;;;;;5016238;28;20276;-80
2023/03/29 10:38:28;;;;;;;15.98;8.68;;;10.30;99.90;;;;;;5027196;28;20041;-80
2023/03/29 10:41:02;;;;;;;15.40;8.27;;;10.30;99.90;;;;;;5025780;28;20120;-79
2023/03/29 10:43:36;;;;;;;16.30;8.68;;;10.30;99.90;;;;;;5028116;28;20100;-79
2023/03/29 10:46:20;;;;;;;18.27;8.25;;;10.30;99.90;;;;;;5016635;28;20049;-79
2023/03/29 10:48:49;;;;;;;16.83;8.48;;;10.30;99.90;;;;;;5021682;28;20088;-80
2023/03/29 10:51:17;;;;;;;16.58;8.38;;;10.40;99.90;;;;;;5027886;28;20037;-80
2023/03/29 10:53:43;;;;;;;16.75;8.90;;;10.50;99.90;;;;;;5027086;28;20041;-79
2023/03/29 10:56:28;;;;;;;14.90;8.48;;;10.60;99.90;;;;;;5010423;28;20052;-80
2023/03/29 10:59:21;;;;;;;15.73;8.50;;;10.60;99.90;;;;;;5062341;28;20041;-80
2023/03/29 11:02:14;;;;;;;17.40;8.50;;;10.70;99.90;;;;;;5039400;28;20056;-80
2023/03/29 11:04:47;;;;;;;15.68;8.77;;;10.80;99.90;;;;;;5024955;28;20137;-80
2023/03/29 11:07:30;;;;;;;14.98;8.38;;;10.90;99.90;;;;;;5019376;28;20042;-80
2023/03/29 11:10:18;;;;;;;15.88;8.85;;;11.00;99.90;;;;;;5047726;28;20069;-80
2023/03/29 11:13:17;;;;;;;15.63;8.15;;;11.10;99.90;;;;;;5061189;28;20618;-80
2023/03/29 11:16:34;;;;;;;15.95;8.35;;;11.30;99.90;;;;;;5039630;28;20046;-80
2023/03/29 11:19:45;;;;;;;16.30;8.65;;;11.50;99.90;;;;;;5027830;28;20048;-80
2023/03/29 11:22:19;;;;;;;15.75;8.13;;;11.70;99.90;;;;;;5033195;28;20048;-80
2023/03/29 11:25:15;;;;;;;14.30;7.93;;;11.80;99.90;;;;;;5031131;28;20053;-80
2023/03/29 11:28:11;;;;;;;18.08;9.25;;;12.00;99.90;;;;;;5031964;28;20383;-80
2023/03/29 11:30:52;;;;;;;14.25;8.23;;;12.20;99.90;;;;;;5042008;28;20170;-80
2023/03/29 11:33:43;;;;;;;16.38;9.50;;;12.30;99.90;;;;;;5038813;28;20498;-80
2023/03/29 11:36:30;;;;;;;16.20;8.98;;;12.30;99.90;;;;;;5051672;28;20092;-80
2023/03/29 11:39:17;;;;;;;14.90;8.85;;;12.40;99.90;;;;;;5052402;28;20072;-80
2023/03/29 11:41:48;;;;;;;17.80;8.70;;;12.40;99.90;;;;;;5051688;28;20044;-80
2023/03/29 11:44:29;;;;;;;18.30;8.88;;;12.50;99.90;;;;;;5051236;28;20920;-80
2023/03/29 11:47:16;;;;;;;17.27;9.45;;;12.60;99.90;;;;;;5039213;28;20378;-79
2023/03/29 11:50:02;;;;;;;17.88;8.68;;;12.60;99.90;;;;;;5051802;28;20033;-80
2023/03/29 11:52:42;;;;;;;15.20;8.85;;;12.60;99.90;;;;;;5051560;28;20110;-80
2023/03/29 11:55:18;;;;;;;17.38;9.50;;;12.50;99.90;;;;;;5043696;28;20137;-80
2023/03/29 11:57:57;;;;;;;16.00;9.18;;;12.50;99.90;;;;;;5034112;28;20041;-80
2023/03/29 12:00:47;;;;;;;16.27;9.27;;;12.50;99.90;;;;;;5041830;28;20198;-80
2023/03/29 12:03:38;;;;;;;15.50;9.02;;;12.50;99.90;;;;;;5036251;28;20044;-80
2023/03/29 12:06:28;;;;;;;15.02;8.55;;;12.60;99.90;;;;;;5049360;28;20049;-80
2023/03/29 12:09:20;;;;;;;16.65;9.02;;;12.50;99.90;;;;;;5051963;28;20131;-80
2023/03/29 12:12:16;;;;;;;16.10;8.50;;;12.60;99.90;;;;;;5034373;28;20281;-80
2023/03/29 12:15:03;;;;;;;16.23;8.68;;;12.60;99.90;;;;;;5049956;28;20040;-80
2023/03/29 12:17:43;;;;;;;14.85;8.20;;;12.60;99.90;;;;;;5035724;28;20132;-80
2023/03/29 12:20:27;;;;;;;16.35;8.68;;;12.50;99.90;;;;;;5031513;28;20049;-80
2023/03/29 12:22:54;;;;;;;15.52;8.50;;;12.70;99.90;;;;;;5031691;28;20033;-80
2023/03/29 12:25:29;;;;;;;14.35;7.90;;;12.90;99.90;;;;;;5041592;28;20125;-80
2023/03/29 12:28:11;;;;;;;14.20;7.72;;;13.00;99.90;;;;;;5050080;28;20528;-80
2023/03/29 12:30:51;;;;;;;12.45;7.10;;;13.10;99.90;;;;;;5049003;28;20092;-80
2023/03/29 12:33:25;;;;;;;12.82;7.00;;;13.20;99.90;;;;;;5047907;28;20052;-80
2023/03/29 12:35:52;;;;;;;12.48;7.28;;;13.30;99.90;;;;;;5046799;28;20040;-80
2023/03/29 12:38:24;;;;;;;14.40;7.35;;;13.40;99.90;;;;;;5041650;28;20099;-80
2023/03/29 12:41:03;;;;;;;15.88;6.80;;;13.40;99.90;;;;;;5035359;28;20501;-80
2023/03/29 12:43:37;;;;;;;13.20;7.32;;;13.50;99.90;;;;;;5051008;28;20044;-80
2023/03/29 12:46:10;;;;;;;12.68;6.78;;;13.60;99.90;;;;;;5034482;28;20098;-80
2023/03/29 12:48:39;;;;;;;16.08;6.78;;;13.60;99.90;;;;;;5049630;28;20068;-80
2023/03/29 12:51:12;;;;;;;12.43;6.82;;;13.60;99.90;;;;;;5048979;28;20037;-80
2023/03/29 12:53:41;;;;;;;13.75;6.47;;;13.60;99.90;;;;;;5051340;28;20048;-80
2023/03/29 12:56:16;;;;;;;13.35;6.43;;;13.60;99.90;;;;;;5037780;28;20049;-80
2023/03/29 12:59:09;;;;;;;13.45;6.97;;;13.60;99.90;;;;;;5064873;28;20413;-80
2023/03/29 13:01:39;;;;;;;12.43;6.88;;;13.50;99.90;;;;;;5054434;28;20393;-79
2023/03/29 13:04:19;;;;;;;13.18;7.28;;;13.60;99.90;;;;;;5037570;28;20103;-79
2023/03/29 13:06:48;;;;;;;15.43;7.30;;;13.60;99.90;;;;;;5053601;28;20058;-80
2023/03/29 13:09:44;;;;;;;14.02;7.10;;;13.60;99.90;;;;;;5053377;28;20039;-79
2023/03/29 13:12:17;;;;;;;12.57;6.78;;;13.60;99.90;;;;;;5053963;28;20511;-80